sensor_id;sensor_type;location;lat;lon;timestamp;pressure;altitude;pressure_sealevel;temperature;humidity
41334;BME280;27078;46.428;6.256;2024-03-07T00:01:39;96749.88;;;3.69;65.89
41334;BME280;27078;46.428;6.256;2024-03-07T00:04:05;96749.25;;;3.62;66.45
41334;BME280;27078;46.428;6.256;2024-03-07T00:06:31;96747.25;;;3.58;66.45
41334;BME280;27078;46.428;6.256;2024-03-07T00:08:56;96750.47;;;3.49;66.82
41334;BME280;27078;46.428;6.256;2024-03-07T00:11:21;96733.88;;;3.39;67.02
41334;BME280;27078;46.428;6.256;2024-03-07T00:13:46;96745.84;;;3.28;67.37
41334;BME280;27078;46.428;6.256;2024-03-07T00:16:11;96743.31;;;3.26;67.01
41334;BME280;27078;46.428;6.256;2024-03-07T00:18:37;96746.06;;;3.26;67.05
41334;BME280;27078;46.428;6.256;2024-03-07T00:21:02;96735.09;;;3.26;66.77
41334;BME280;27078;46.428;6.256;2024-03-07T00:23:28;96739.25;;;3.29;66.55
41334;BME280;27078;46.428;6.256;2024-03-07T00:25:53;96734.03;;;3.27;66.74
41334;BME280;27078;46.428;6.256;2024-03-07T00:28:18;96746.69;;;3.34;66.85
41334;BME280;27078;46.428;6.256;2024-03-07T00:30:44;96736.81;;;3.33;66.89
41334;BME280;27078;46.428;6.256;2024-03-07T00:33:10;96738.94;;;3.25;66.91
41334;BME280;27078;46.428;6.256;2024-03-07T00:35:36;96744.03;;;3.17;67.03
41334;BME280;27078;46.428;6.256;2024-03-07T00:38:01;96746.97;;;3.10;67.24
41334;BME280;27078;46.428;6.256;2024-03-07T00:40:26;96741.16;;;3.06;68.45
41334;BME280;27078;46.428;6.256;2024-03-07T00:42:51;96749.34;;;3.01;68.31
41334;BME280;27078;46.428;6.256;2024-03-07T00:45:17;96745.69;;;2.96;68.61
41334;BME280;27078;46.428;6.256;2024-03-07T00:47:43;96738.22;;;2.91;68.63
41334;BME280;27078;46.428;6.256;2024-03-07T00:50:08;96737.31;;;2.86;69.06
41334;BME280;27078;46.428;6.256;2024-03-07T00:52:33;96738.31;;;2.79;69.46
41334;BME280;27078;46.428;6.256;2024-03-07T00:54:59;96735.19;;;2.71;69.33
41334;BME280;27078;46.428;6.256;2024-03-07T00:57:24;96743.84;;;2.63;69.42
41334;BME280;27078;46.428;6.256;2024-03-07T00:59:49;96740.13;;;2.52;69.61
41334;BME280;27078;46.428;6.256;2024-03-07T01:02:14;96735.63;;;2.46;70.65
41334;BME280;27078;46.428;6.256;2024-03-07T01:04:42;96726.25;;;2.42;71.11
41334;BME280;27078;46.428;6.256;2024-03-07T01:07:07;96723.78;;;2.40;71.21
41334;BME280;27078;46.428;6.256;2024-03-07T01:09:33;96722.06;;;2.34;70.86
41334;BME280;27078;46.428;6.256;2024-03-07T01:12:00;96726.88;;;2.27;71.21
41334;BME280;27078;46.428;6.256;2024-03-07T01:14:28;96716.09;;;2.20;71.30
41334;BME280;27078;46.428;6.256;2024-03-07T01:16:53;96716.00;;;2.15;71.32
41334;BME280;27078;46.428;6.256;2024-03-07T01:19:19;96714.84;;;2.11;72.24
41334;BME280;27078;46.428;6.256;2024-03-07T01:21:44;96703.06;;;2.10;71.51
41334;BME280;27078;46.428;6.256;2024-03-07T01:24:09;96706.44;;;2.18;72.59
41334;BME280;27078;46.428;6.256;2024-03-07T01:26:34;96702.06;;;2.17;71.66
41334;BME280;27078;46.428;6.256;2024-03-07T01:28:59;96709.09;;;2.12;71.75
41334;BME280;27078;46.428;6.256;2024-03-07T01:31:25;96712.91;;;2.11;71.04
41334;BME280;27078;46.428;6.256;2024-03-07T01:33:50;96700.47;;;2.04;71.66
41334;BME280;27078;46.428;6.256;2024-03-07T01:36:15;96707.38;;;2.06;70.81
41334;BME280;27078;46.428;6.256;2024-03-07T01:38:41;96694.41;;;2.02;71.55
41334;BME280;27078;46.428;6.256;2024-03-07T01:41:06;96696.44;;;2.06;71.12
41334;BME280;27078;46.428;6.256;2024-03-07T01:43:31;96696.50;;;2.11;71.37
41334;BME280;27078;46.428;6.256;2024-03-07T01:45:57;96683.13;;;2.15;71.25
41334;BME280;27078;46.428;6.256;2024-03-07T01:48:25;96693.19;;;2.26;71.03
41334;BME280;27078;46.428;6.256;2024-03-07T01:50:51;96691.00;;;2.28;71.26
41334;BME280;27078;46.428;6.256;2024-03-07T01:53:16;96685.34;;;2.35;71.21
41334;BME280;27078;46.428;6.256;2024-03-07T01:55:42;96676.97;;;2.42;71.13
41334;BME280;27078;46.428;6.256;2024-03-07T01:58:09;96675.69;;;2.49;71.67
41334;BME280;27078;46.428;6.256;2024-03-07T02:00:39;96672.22;;;2.54;72.05
41334;BME280;27078;46.428;6.256;2024-03-07T02:03:04;96670.09;;;2.61;72.32
41334;BME280;27078;46.428;6.256;2024-03-07T02:05:32;96669.66;;;2.69;72.72
41334;BME280;27078;46.428;6.256;2024-03-07T02:07:57;96668.16;;;2.78;72.44
41334;BME280;27078;46.428;6.256;2024-03-07T02:10:23;96650.41;;;2.86;72.26
41334;BME280;27078;46.428;6.256;2024-03-07T02:12:48;96659.84;;;2.95;71.97
41334;BME280;27078;46.428;6.256;2024-03-07T02:15:13;96656.34;;;3.00;71.42
41334;BME280;27078;46.428;6.256;2024-03-07T02:17:39;96652.03;;;3.04;70.39
41334;BME280;27078;46.428;6.256;2024-03-07T02:20:04;96653.72;;;3.10;70.43
41334;BME280;27078;46.428;6.256;2024-03-07T02:22:32;96656.47;;;3.10;69.94
41334;BME280;27078;46.428;6.256;2024-03-07T02:24:58;96651.75;;;3.05;70.01
41334;BME280;27078;46.428;6.256;2024-03-07T02:27:23;96649.59;;;3.07;69.97
41334;BME280;27078;46.428;6.256;2024-03-07T02:29:48;96642.50;;;3.12;70.38
41334;BME280;27078;46.428;6.256;2024-03-07T02:32:14;96635.88;;;3.07;70.34
41334;BME280;27078;46.428;6.256;2024-03-07T02:34:39;96641.72;;;3.16;71.10
41334;BME280;27078;46.428;6.256;2024-03-07T02:37:04;96636.03;;;3.23;70.53
41334;BME280;27078;46.428;6.256;2024-03-07T02:39:30;96636.09;;;3.28;70.33
41334;BME280;27078;46.428;6.256;2024-03-07T02:41:55;96635.03;;;3.34;70.91
41334;BME280;27078;46.428;6.256;2024-03-07T02:44:20;96641.19;;;3.41;70.42
41334;BME280;27078;46.428;6.256;2024-03-07T02:46:45;96635.78;;;3.51;71.32
41334;BME280;27078;46.428;6.256;2024-03-07T02:49:12;96626.34;;;3.69;70.83
41334;BME280;27078;46.428;6.256;2024-03-07T02:51:37;96630.81;;;3.81;70.98
41334;BME280;27078;46.428;6.256;2024-03-07T02:54:02;96627.09;;;3.97;70.34
41334;BME280;27078;46.428;6.256;2024-03-07T02:56:30;96622.78;;;4.06;70.07
41334;BME280;27078;46.428;6.256;2024-03-07T02:58:55;96623.09;;;4.15;69.68
41334;BME280;27078;46.428;6.256;2024-03-07T03:01:21;96621.81;;;4.22;69.48
41334;BME280;27078;46.428;6.256;2024-03-07T03:03:46;96615.50;;;4.27;69.34
41334;BME280;27078;46.428;6.256;2024-03-07T03:06:11;96611.41;;;4.30;69.06
41334;BME280;27078;46.428;6.256;2024-03-07T03:08:37;96614.22;;;4.40;68.98
41334;BME280;27078;46.428;6.256;2024-03-07T03:11:02;96615.06;;;4.45;68.29
41334;BME280;27078;46.428;6.256;2024-03-07T03:13:28;96610.97;;;4.48;68.82
41334;BME280;27078;46.428;6.256;2024-03-07T03:15:54;96610.72;;;4.49;68.63
41334;BME280;27078;46.428;6.256;2024-03-07T03:18:21;96621.72;;;4.55;68.39
41334;BME280;27078;46.428;6.256;2024-03-07T03:20:46;96605.78;;;4.57;68.37
41334;BME280;27078;46.428;6.256;2024-03-07T03:23:13;96598.66;;;4.61;68.20
41334;BME280;27078;46.428;6.256;2024-03-07T03:25:38;96609.13;;;4.64;68.21
41334;BME280;27078;46.428;6.256;2024-03-07T03:28:04;96603.63;;;4.64;68.16
41334;BME280;27078;46.428;6.256;2024-03-07T03:30:29;96602.22;;;4.61;67.86
41334;BME280;27078;46.428;6.256;2024-03-07T03:32:55;96604.44;;;4.59;68.42
41334;BME280;27078;46.428;6.256;2024-03-07T03:35:20;96602.22;;;4.61;68.07
41334;BME280;27078;46.428;6.256;2024-03-07T03:37:45;96600.06;;;4.68;67.65
41334;BME280;27078;46.428;6.256;2024-03-07T03:40:11;96596.50;;;4.68;68.01
41334;BME280;27078;46.428;6.256;2024-03-07T03:42:38;96594.31;;;4.75;68.53
41334;BME280;27078;46.428;6.256;2024-03-07T03:45:04;96592.09;;;4.67;68.24
41334;BME280;27078;46.428;6.256;2024-03-07T03:47:33;96603.88;;;4.62;68.02
41334;BME280;27078;46.428;6.256;2024-03-07T03:49:58;96589.31;;;4.62;68.44
41334;BME280;27078;46.428;6.256;2024-03-07T03:52:24;96594.81;;;4.62;67.90
41334;BME280;27078;46.428;6.256;2024-03-07T03:54:49;96592.63;;;4.64;67.53
41334;BME280;27078;46.428;6.256;2024-03-07T03:57:14;96593.97;;;4.56;68.34
41334;BME280;27078;46.428;6.256;2024-03-07T03:59:43;96592.81;;;4.47;68.18
41334;BME280;27078;46.428;6.256;2024-03-07T04:02:09;96580.38;;;4.34;68.96
41334;BME280;27078;46.428;6.256;2024-03-07T04:04:38;96584.75;;;4.30;69.15
41334;BME280;27078;46.428;6.256;2024-03-07T04:07:03;96584.78;;;4.35;68.65
41334;BME280;27078;46.428;6.256;2024-03-07T04:09:28;96575.50;;;4.46;68.40
41334;BME280;27078;46.428;6.256;2024-03-07T04:11:53;96571.66;;;4.47;68.21
41334;BME280;27078;46.428;6.256;2024-03-07T04:14:19;96575.81;;;4.55;68.37
41334;BME280;27078;46.428;6.256;2024-03-07T04:16:45;96579.94;;;4.58;67.77
41334;BME280;27078;46.428;6.256;2024-03-07T04:19:10;96578.00;;;4.53;68.05
41334;BME280;27078;46.428;6.256;2024-03-07T04:21:35;96579.91;;;4.47;68.52
41334;BME280;27078;46.428;6.256;2024-03-07T04:24:01;96583.75;;;4.52;68.53
41334;BME280;27078;46.428;6.256;2024-03-07T04:26:27;96586.78;;;4.50;68.41
41334;BME280;27078;46.428;6.256;2024-03-07T04:28:52;96587.28;;;4.42;68.51
41334;BME280;27078;46.428;6.256;2024-03-07T04:31:18;96578.44;;;4.35;69.71
41334;BME280;27078;46.428;6.256;2024-03-07T04:33:43;96587.28;;;4.42;68.38
41334;BME280;27078;46.428;6.256;2024-03-07T04:36:08;96576.28;;;4.42;69.09
41334;BME280;27078;46.428;6.256;2024-03-07T04:38:34;96581.50;;;4.38;69.17
41334;BME280;27078;46.428;6.256;2024-03-07T04:40:59;96568.03;;;4.37;69.36
41334;BME280;27078;46.428;6.256;2024-03-07T04:43:24;96578.44;;;4.30;69.72
41334;BME280;27078;46.428;6.256;2024-03-07T04:45:51;96584.16;;;4.23;70.10
41334;BME280;27078;46.428;6.256;2024-03-07T04:48:16;96571.22;;;4.18;70.42
41334;BME280;27078;46.428;6.256;2024-03-07T04:50:41;96586.56;;;4.14;70.22
41334;BME280;27078;46.428;6.256;2024-03-07T04:53:07;96582.19;;;4.13;70.30
41334;BME280;27078;46.428;6.256;2024-03-07T04:55:32;96577.25;;;4.15;70.29
41334;BME280;27078;46.428;6.256;2024-03-07T04:57:58;96577.25;;;4.15;70.18
41334;BME280;27078;46.428;6.256;2024-03-07T05:00:23;96578.91;;;4.16;69.79
41334;BME280;27078;46.428;6.256;2024-03-07T05:02:49;96579.78;;;4.22;69.29
41334;BME280;27078;46.428;6.256;2024-03-07T05:05:15;96578.91;;;4.21;69.53
41334;BME280;27078;46.428;6.256;2024-03-07T05:07:47;96581.66;;;4.21;68.80
41334;BME280;27078;46.428;6.256;2024-03-07T05:10:12;96581.13;;;4.19;69.88
41334;BME280;27078;46.428;6.256;2024-03-07T05:12:37;96571.53;;;4.27;69.21
41334;BME280;27078;46.428;6.256;2024-03-07T05:15:03;96570.75;;;4.32;69.37
41334;BME280;27078;46.428;6.256;2024-03-07T05:17:29;96579.22;;;4.25;69.33
41334;BME280;27078;46.428;6.256;2024-03-07T05:19:56;96578.97;;;4.26;69.16
41334;BME280;27078;46.428;6.256;2024-03-07T05:22:21;96580.84;;;4.21;69.01
41334;BME280;27078;46.428;6.256;2024-03-07T05:24:50;96580.03;;;4.20;69.31
41334;BME280;27078;46.428;6.256;2024-03-07T05:27:16;96583.56;;;4.16;69.31
41334;BME280;27078;46.428;6.256;2024-03-07T05:29:41;96583.31;;;4.17;69.60
41334;BME280;27078;46.428;6.256;2024-03-07T05:32:23;96580.84;;;4.16;69.46
41334;BME280;27078;46.428;6.256;2024-03-07T05:34:48;96579.44;;;4.18;69.53
41334;BME280;27078;46.428;6.256;2024-03-07T05:37:14;96585.50;;;4.15;69.77
41334;BME280;27078;46.428;6.256;2024-03-07T05:39:39;96585.75;;;4.14;69.67
41334;BME280;27078;46.428;6.256;2024-03-07T05:42:04;96582.72;;;4.10;70.23
41334;BME280;27078;46.428;6.256;2024-03-07T05:44:29;96596.16;;;4.07;70.16
41334;BME280;27078;46.428;6.256;2024-03-07T05:46:54;96594.50;;;4.06;70.40
41334;BME280;27078;46.428;6.256;2024-03-07T05:49:20;96589.81;;;4.06;70.68
41334;BME280;27078;46.428;6.256;2024-03-07T05:51:46;96598.59;;;4.03;70.40
41334;BME280;27078;46.428;6.256;2024-03-07T05:54:12;96597.19;;;4.00;70.62
41334;BME280;27078;46.428;6.256;2024-03-07T05:56:38;96586.50;;;3.99;70.94
41334;BME280;27078;46.428;6.256;2024-03-07T05:59:03;96598.84;;;4.01;71.59
41334;BME280;27078;46.428;6.256;2024-03-07T06:01:29;96602.44;;;4.02;71.87
41334;BME280;27078;46.428;6.256;2024-03-07T06:03:59;96598.03;;;4.01;71.81
41334;BME280;27078;46.428;6.256;2024-03-07T06:06:25;96610.16;;;4.05;72.26
41334;BME280;27078;46.428;6.256;2024-03-07T06:08:50;96607.44;;;4.10;72.03
41334;BME280;27078;46.428;6.256;2024-03-07T06:11:15;96605.78;;;4.09;72.52
41334;BME280;27078;46.428;6.256;2024-03-07T06:13:45;96600.59;;;4.13;72.26
41334;BME280;27078;46.428;6.256;2024-03-07T06:16:11;96595.09;;;4.18;71.70
41334;BME280;27078;46.428;6.256;2024-03-07T06:18:36;96589.66;;;4.23;71.40
41334;BME280;27078;46.428;6.256;2024-03-07T06:21:01;96588.84;;;4.28;71.41
41334;BME280;27078;46.428;6.256;2024-03-07T06:23:29;96587.75;;;4.29;71.52
41334;BME280;27078;46.428;6.256;2024-03-07T06:25:55;96594.41;;;4.33;71.71
41334;BME280;27078;46.428;6.256;2024-03-07T06:28:23;96594.41;;;4.38;71.37
41334;BME280;27078;46.428;6.256;2024-03-07T06:30:48;96600.47;;;4.40;71.06
41334;BME280;27078;46.428;6.256;2024-03-07T06:33:14;96588.69;;;4.44;71.17
41334;BME280;27078;46.428;6.256;2024-03-07T06:35:39;96589.84;;;4.54;70.17
41334;BME280;27078;46.428;6.256;2024-03-07T06:38:06;96595.09;;;4.60;69.66
41334;BME280;27078;46.428;6.256;2024-03-07T06:40:32;96593.97;;;4.56;69.90
41334;BME280;27078;46.428;6.256;2024-03-07T06:42:58;96595.81;;;4.45;69.92
41334;BME280;27078;46.428;6.256;2024-03-07T06:45:23;96590.84;;;4.37;70.35
41334;BME280;27078;46.428;6.256;2024-03-07T06:47:49;96592.72;;;4.32;70.82
41334;BME280;27078;46.428;6.256;2024-03-07T06:50:14;96599.56;;;4.24;71.28
41334;BME280;27078;46.428;6.256;2024-03-07T06:52:44;96598.69;;;4.18;71.02
41334;BME280;27078;46.428;6.256;2024-03-07T06:55:10;96599.75;;;4.12;71.19
41334;BME280;27078;46.428;6.256;2024-03-07T06:57:36;96609.06;;;4.11;71.25
41334;BME280;27078;46.428;6.256;2024-03-07T07:00:01;96598.09;;;4.11;71.46
41334;BME280;27078;46.428;6.256;2024-03-07T07:02:35;96602.22;;;4.14;71.40
41334;BME280;27078;46.428;6.256;2024-03-07T07:05:00;96606.16;;;4.23;71.16
41334;BME280;27078;46.428;6.256;2024-03-07T07:07:26;96598.75;;;4.29;70.96
41334;BME280;27078;46.428;6.256;2024-03-07T07:09:51;96596.34;;;4.37;71.17
41334;BME280;27078;46.428;6.256;2024-03-07T07:12:18;96598.03;;;4.43;70.69
41334;BME280;27078;46.428;6.256;2024-03-07T07:14:44;96599.72;;;4.49;70.50
41334;BME280;27078;46.428;6.256;2024-03-07T07:17:09;96593.16;;;4.56;70.31
41334;BME280;27078;46.428;6.256;2024-03-07T07:19:38;96591.53;;;4.65;70.03
41334;BME280;27078;46.428;6.256;2024-03-07T07:22:05;96597.31;;;4.68;69.52
41334;BME280;27078;46.428;6.256;2024-03-07T07:24:31;96600.63;;;4.70;68.65
41334;BME280;27078;46.428;6.256;2024-03-07T07:26:59;96596.78;;;4.71;68.84
41334;BME280;27078;46.428;6.256;2024-03-07T07:29:25;96595.66;;;4.67;69.18
41334;BME280;27078;46.428;6.256;2024-03-07T07:31:51;96597.31;;;4.68;68.50
41334;BME280;27078;46.428;6.256;2024-03-07T07:34:17;96603.88;;;4.62;68.54
41334;BME280;27078;46.428;6.256;2024-03-07T07:36:42;96596.78;;;4.66;69.59
41334;BME280;27078;46.428;6.256;2024-03-07T07:39:07;96597.34;;;4.79;69.52
41334;BME280;27078;46.428;6.256;2024-03-07T07:41:41;96600.13;;;4.84;68.59
41334;BME280;27078;46.428;6.256;2024-03-07T07:44:07;96600.19;;;4.94;68.52
41334;BME280;27078;46.428;6.256;2024-03-07T07:46:33;96591.44;;;5.17;69.75
41334;BME280;27078;46.428;6.256;2024-03-07T07:48:59;96587.34;;;5.35;69.79
41334;BME280;27078;46.428;6.256;2024-03-07T07:51:24;96588.47;;;5.50;68.79
41334;BME280;27078;46.428;6.256;2024-03-07T07:53:50;96588.50;;;5.65;68.21
41334;BME280;27078;46.428;6.256;2024-03-07T07:56:15;96586.56;;;5.81;67.86
41334;BME280;27078;46.428;6.256;2024-03-07T07:58:41;96576.66;;;6.00;66.96
41334;BME280;27078;46.428;6.256;2024-03-07T08:01:06;96580.50;;;6.20;67.96
41334;BME280;27078;46.428;6.256;2024-03-07T08:03:34;96574.66;;;6.47;67.20
41334;BME280;27078;46.428;6.256;2024-03-07T08:06:00;96578.19;;;6.62;64.81
41334;BME280;27078;46.428;6.256;2024-03-07T08:08:26;96578.94;;;6.89;64.67
41334;BME280;27078;46.428;6.256;2024-03-07T08:10:51;96570.63;;;6.94;62.59
41334;BME280;27078;46.428;6.256;2024-03-07T08:13:16;96572.50;;;7.03;61.88
41334;BME280;27078;46.428;6.256;2024-03-07T08:15:41;96565.88;;;7.04;62.85
41334;BME280;27078;46.428;6.256;2024-03-07T08:18:07;96573.88;;;7.06;62.54
41334;BME280;27078;46.428;6.256;2024-03-07T08:20:35;96573.50;;;7.23;60.77
41334;BME280;27078;46.428;6.256;2024-03-07T08:23:01;96569.00;;;7.37;61.65
41334;BME280;27078;46.428;6.256;2024-03-07T08:25:27;96564.03;;;7.39;60.33
41334;BME280;27078;46.428;6.256;2024-03-07T08:27:53;96562.34;;;7.43;60.92
41334;BME280;27078;46.428;6.256;2024-03-07T08:30:18;96567.31;;;7.46;60.27
41334;BME280;27078;46.428;6.256;2024-03-07T08:32:48;96566.00;;;7.73;59.70
41334;BME280;27078;46.428;6.256;2024-03-07T08:35:13;96562.56;;;7.86;58.37
41334;BME280;27078;46.428;6.256;2024-03-07T08:37:48;96560.91;;;7.85;58.33
41334;BME280;27078;46.428;6.256;2024-03-07T08:40:26;96561.00;;;7.75;57.51
41334;BME280;27078;46.428;6.256;2024-03-07T08:42:52;96556.38;;;7.65;58.87
41334;BME280;27078;46.428;6.256;2024-03-07T08:45:19;96563.50;;;7.76;58.70
41334;BME280;27078;46.428;6.256;2024-03-07T08:47:45;96556.59;;;7.74;57.83
41334;BME280;27078;46.428;6.256;2024-03-07T08:50:11;96552.75;;;7.70;58.78
41334;BME280;27078;46.428;6.256;2024-03-07T08:52:38;96550.56;;;7.67;57.42
41334;BME280;27078;46.428;6.256;2024-03-07T08:55:04;96556.84;;;7.77;57.56
41334;BME280;27078;46.428;6.256;2024-03-07T08:57:30;96550.03;;;7.65;57.03
41334;BME280;27078;46.428;6.256;2024-03-07T08:59:55;96546.66;;;7.73;57.61
41334;BME280;27078;46.428;6.256;2024-03-07T09:02:21;96551.59;;;7.76;56.69
41334;BME280;27078;46.428;6.256;2024-03-07T09:04:46;96551.22;;;7.88;57.84
41334;BME280;27078;46.428;6.256;2024-03-07T09:07:11;96544.72;;;8.02;57.31
41334;BME280;27078;46.428;6.256;2024-03-07T09:09:38;96549.66;;;8.11;57.67
41334;BME280;27078;46.428;6.256;2024-03-07T09:12:03;96549.19;;;7.98;57.17
41334;BME280;27078;46.428;6.256;2024-03-07T09:14:30;96548.28;;;8.08;56.36
41334;BME280;27078;46.428;6.256;2024-03-07T09:16:55;96552.91;;;8.13;57.28
41334;BME280;27078;46.428;6.256;2024-03-07T09:19:21;96548.47;;;8.17;57.59
41334;BME280;27078;46.428;6.256;2024-03-07T09:21:50;96543.13;;;8.25;56.61
41334;BME280;27078;46.428;6.256;2024-03-07T09:24:15;96543.91;;;8.31;55.61
41334;BME280;27078;46.428;6.256;2024-03-07T09:26:41;96548.16;;;8.23;55.62
41334;BME280;27078;46.428;6.256;2024-03-07T09:29:06;96540.00;;;8.32;56.01
41334;BME280;27078;46.428;6.256;2024-03-07T09:31:32;96547.34;;;8.47;56.42
41334;BME280;27078;46.428;6.256;2024-03-07T09:33:57;96540.84;;;8.62;55.28
41334;BME280;27078;46.428;6.256;2024-03-07T09:36:23;96542.47;;;8.63;54.70
41334;BME280;27078;46.428;6.256;2024-03-07T09:38:48;96542.47;;;8.63;53.98
41334;BME280;27078;46.428;6.256;2024-03-07T09:41:14;96546.53;;;8.70;55.68
41334;BME280;27078;46.428;6.256;2024-03-07T09:43:40;96536.91;;;8.68;55.70
41334;BME280;27078;46.428;6.256;2024-03-07T09:46:08;96533.72;;;8.56;53.80
41334;BME280;27078;46.428;6.256;2024-03-07T09:48:35;96541.00;;;8.70;54.28
41334;BME280;27078;46.428;6.256;2024-03-07T09:51:00;96536.47;;;8.80;54.52
41334;BME280;27078;46.428;6.256;2024-03-07T09:53:27;96531.03;;;8.93;54.76
41334;BME280;27078;46.428;6.256;2024-03-07T09:55:53;96534.97;;;9.11;55.20
41334;BME280;27078;46.428;6.256;2024-03-07T09:58:19;96533.22;;;9.15;53.40
41334;BME280;27078;46.428;6.256;2024-03-07T10:00:47;96531.94;;;9.08;53.20
41334;BME280;27078;46.428;6.256;2024-03-07T10:03:15;96532.59;;;8.99;51.42
41334;BME280;27078;46.428;6.256;2024-03-07T10:05:42;96532.03;;;9.03;53.02
41334;BME280;27078;46.428;6.256;2024-03-07T10:08:08;96526.03;;;8.95;53.01
41334;BME280;27078;46.428;6.256;2024-03-07T10:10:33;96536.44;;;9.04;53.27
41334;BME280;27078;46.428;6.256;2024-03-07T10:12:59;96526.03;;;8.95;52.42
41334;BME280;27078;46.428;6.256;2024-03-07T10:15:28;96524.03;;;9.01;51.69
41334;BME280;27078;46.428;6.256;2024-03-07T10:17:53;96528.19;;;8.98;51.67
41334;BME280;27078;46.428;6.256;2024-03-07T10:20:19;96524.91;;;8.96;52.26
41334;BME280;27078;46.428;6.256;2024-03-07T10:22:47;96528.19;;;8.98;52.00
41334;BME280;27078;46.428;6.256;2024-03-07T10:25:16;96522.13;;;8.96;50.82
41334;BME280;27078;46.428;6.256;2024-03-07T10:27:42;96524.03;;;9.01;54.31
41334;BME280;27078;46.428;6.256;2024-03-07T10:30:09;96523.63;;;9.08;52.34
41334;BME280;27078;46.428;6.256;2024-03-07T10:32:34;96524.16;;;9.10;53.23
41334;BME280;27078;46.428;6.256;2024-03-07T10:35:01;96516.69;;;9.10;51.53
41334;BME280;27078;46.428;6.256;2024-03-07T10:37:28;96515.72;;;9.20;52.33
41334;BME280;27078;46.428;6.256;2024-03-07T10:39:54;96512.50;;;9.32;51.79
41334;BME280;27078;46.428;6.256;2024-03-07T10:42:19;96513.47;;;9.22;47.92
41334;BME280;27078;46.428;6.256;2024-03-07T10:44:47;96515.56;;;9.11;49.61
41334;BME280;27078;46.428;6.256;2024-03-07T10:47:16;96514.94;;;9.14;49.89
41334;BME280;27078;46.428;6.256;2024-03-07T10:52:28;96510.63;;;9.27;50.65
41334;BME280;27078;46.428;6.256;2024-03-07T11:00:03;96503.06;;;9.14;52.38
41334;BME280;27078;46.428;6.256;2024-03-07T11:02:49;96501.97;;;9.15;50.46
41334;BME280;27078;46.428;6.256;2024-03-07T11:05:18;96500.59;;;9.12;50.82
41334;BME280;27078;46.428;6.256;2024-03-07T11:07:43;96498.66;;;9.13;51.32
41334;BME280;27078;46.428;6.256;2024-03-07T11:10:09;96496.09;;;9.16;52.74
41334;BME280;27078;46.428;6.256;2024-03-07T11:12:36;96504.03;;;9.23;53.00
41334;BME280;27078;46.428;6.256;2024-03-07T11:15:04;96498.28;;;9.19;52.34
41334;BME280;27078;46.428;6.256;2024-03-07T11:17:31;96498.59;;;9.18;51.97
41334;BME280;27078;46.428;6.256;2024-03-07T11:22:42;96484.13;;;9.21;51.86
41334;BME280;27078;46.428;6.256;2024-03-07T11:25:10;96481.19;;;9.31;52.76
41334;BME280;27078;46.428;6.256;2024-03-07T11:27:39;96478.03;;;9.38;51.43
41334;BME280;27078;46.428;6.256;2024-03-07T11:30:04;96468.75;;;9.48;52.75
41334;BME280;27078;46.428;6.256;2024-03-07T11:32:33;96473.78;;;9.45;51.76
41334;BME280;27078;46.428;6.256;2024-03-07T11:34:59;96460.38;;;9.53;51.56
41334;BME280;27078;46.428;6.256;2024-03-07T11:37:38;96461.34;;;9.62;51.84
41334;BME280;27078;46.428;6.256;2024-03-07T11:40:13;96457.72;;;9.61;51.82
41334;BME280;27078;46.428;6.256;2024-03-07T11:42:47;96453.75;;;9.67;52.50
41334;BME280;27078;46.428;6.256;2024-03-07T11:45:13;96451.09;;;9.76;52.08
41334;BME280;27078;46.428;6.256;2024-03-07T11:47:51;96448.94;;;9.73;51.10
41334;BME280;27078;46.428;6.256;2024-03-07T11:50:24;96445.22;;;9.64;49.59
41334;BME280;27078;46.428;6.256;2024-03-07T11:52:51;96446.47;;;9.72;51.67
41334;BME280;27078;46.428;6.256;2024-03-07T11:55:17;96432.34;;;9.87;51.42
41334;BME280;27078;46.428;6.256;2024-03-07T11:57:44;96437.91;;;10.01;52.15
41334;BME280;27078;46.428;6.256;2024-03-07T12:00:10;96432.78;;;10.08;51.33
41334;BME280;27078;46.428;6.256;2024-03-07T12:02:39;96435.66;;;10.03;50.08
41334;BME280;27078;46.428;6.256;2024-03-07T12:05:05;96425.78;;;9.97;50.36
41334;BME280;27078;46.428;6.256;2024-03-07T12:07:33;96424.16;;;10.09;51.56
41334;BME280;27078;46.428;6.256;2024-03-07T12:09:59;96422.59;;;10.03;50.64
41334;BME280;27078;46.428;6.256;2024-03-07T12:12:25;96413.06;;;10.09;50.22
41334;BME280;27078;46.428;6.256;2024-03-07T12:14:52;96410.50;;;10.13;50.52
41334;BME280;27078;46.428;6.256;2024-03-07T12:17:19;96414.19;;;10.22;50.29
41334;BME280;27078;46.428;6.256;2024-03-07T12:19:44;96399.84;;;10.34;50.22
41334;BME280;27078;46.428;6.256;2024-03-07T12:22:11;96403.44;;;10.34;48.68
41334;BME280;27078;46.428;6.256;2024-03-07T12:24:40;96407.75;;;10.40;49.71
41334;BME280;27078;46.428;6.256;2024-03-07T12:29:31;96396.44;;;10.37;50.05
41334;BME280;27078;46.428;6.256;2024-03-07T12:31:57;96400.13;;;10.32;49.17
41334;BME280;27078;46.428;6.256;2024-03-07T12:34:24;96398.69;;;10.21;48.49
41334;BME280;27078;46.428;6.256;2024-03-07T12:36:51;96392.94;;;10.31;49.31
41334;BME280;27078;46.428;6.256;2024-03-07T12:39:22;96395.09;;;10.21;49.22
41334;BME280;27078;46.428;6.256;2024-03-07T12:41:51;96392.94;;;10.17;49.18
41334;BME280;27078;46.428;6.256;2024-03-07T12:44:20;96380.50;;;10.15;49.32
41334;BME280;27078;46.428;6.256;2024-03-07T12:46:46;96378.13;;;10.22;50.16
41334;BME280;27078;46.428;6.256;2024-03-07T12:49:11;96377.22;;;10.40;50.55
41334;BME280;27078;46.428;6.256;2024-03-07T12:51:40;96377.97;;;10.46;48.78
41334;BME280;27078;46.428;6.256;2024-03-07T12:54:06;96377.31;;;10.49;49.55
41334;BME280;27078;46.428;6.256;2024-03-07T12:56:34;96372.69;;;10.45;49.37
41334;BME280;27078;46.428;6.256;2024-03-07T12:58:59;96368.28;;;10.44;49.45
41334;BME280;27078;46.428;6.256;2024-03-07T13:01:26;96363.75;;;10.48;50.14
41334;BME280;27078;46.428;6.256;2024-03-07T13:03:52;96360.25;;;10.42;49.28
41334;BME280;27078;46.428;6.256;2024-03-07T13:06:18;96356.38;;;10.43;49.04
41334;BME280;27078;46.428;6.256;2024-03-07T13:08:50;96352.34;;;10.49;50.69
41334;BME280;27078;46.428;6.256;2024-03-07T13:11:15;96353.28;;;10.45;48.41
41334;BME280;27078;46.428;6.256;2024-03-07T13:13:41;96341.78;;;10.37;48.99
41334;BME280;27078;46.428;6.256;2024-03-07T13:16:06;96342.19;;;10.31;48.97
41334;BME280;27078;46.428;6.256;2024-03-07T13:18:31;96340.63;;;10.25;48.74